Time;durP1;ratioP1;P1;durP2;ratioP2;P2;SDS_P1;SDS_P2;PMS_P1;PMS_P2;Temp;Humidity;BMP_temperature;BMP_pressure;BME280_temperature;BME280_humidity;BME280_pressure;Samples;Min_cycle;Max_cycle;Signal;HPM_P1;HPM_P2
2022/03/15 00:02:21;;;;;;;5.33;3.90;;;9.80;54.10;10.00;97496.00;;;;5094380;28;20266;-84
2022/03/15 00:04:48;;;;;;;4.13;3.83;;;9.80;54.20;10.00;97498.00;;;;5094393;28;20219;-84
2022/03/15 00:07:17;;;;;;;4.27;3.70;;;9.80;54.30;10.00;97509.00;;;;5095519;28;20195;-84
2022/03/15 00:09:44;;;;;;;4.37;3.77;;;9.80;54.30;10.00;97497.00;;;;5095367;28;20200;-85
2022/03/15 00:12:12;;;;;;;5.43;4.30;;;9.80;54.40;10.00;97498.00;;;;5095475;28;20199;-84
2022/03/15 00:14:41;;;;;;;5.77;4.33;;;9.80;54.40;10.00;97504.00;;;;5095471;28;20222;-85
2022/03/15 00:17:10;;;;;;;4.47;4.07;;;9.80;54.50;10.00;97495.00;;;;5095483;28;20191;-85
2022/03/15 00:19:37;;;;;;;5.03;4.53;;;9.90;54.60;10.00;97497.00;;;;5094683;28;20214;-85
2022/03/15 00:22:06;;;;;;;4.90;3.87;;;9.80;54.50;10.00;97492.00;;;;5094584;28;20230;-85
2022/03/15 00:24:33;;;;;;;5.30;4.30;;;9.80;54.60;10.00;97489.00;;;;5093793;28;20322;-85
2022/03/15 00:27:01;;;;;;;4.67;4.13;;;9.80;54.60;10.00;97484.00;;;;5094259;28;20656;-84
2022/03/15 00:29:29;;;;;;;5.27;4.30;;;9.80;54.60;10.00;97481.00;;;;5093827;28;20227;-84
2022/03/15 00:31:57;;;;;;;5.13;4.43;;;9.80;54.60;10.00;97481.00;;;;5093610;28;20252;-85
2022/03/15 00:34:25;;;;;;;5.93;4.37;;;9.80;54.80;10.00;97474.00;;;;5093542;28;20219;-84
2022/03/15 00:36:52;;;;;;;4.83;4.43;;;9.80;54.80;10.10;97479.00;;;;5093679;28;20686;-84
2022/03/15 00:39:19;;;;;;;5.23;3.70;;;9.80;54.80;10.10;97472.00;;;;5093652;28;20206;-85
2022/03/15 00:41:46;;;;;;;4.93;4.37;;;9.80;54.70;10.00;97468.00;;;;5093995;28;20231;-84
2022/03/15 00:44:13;;;;;;;4.70;4.23;;;9.90;54.90;10.00;97471.00;;;;5093522;28;20721;-85
2022/03/15 00:46:42;;;;;;;3.97;3.43;;;9.80;55.00;10.00;97467.00;;;;5093611;28;20203;-84
2022/03/15 00:49:10;;;;;;;4.83;4.10;;;9.80;55.00;10.00;97458.00;;;;5093601;28;20218;-84
2022/03/15 00:51:38;;;;;;;5.00;3.90;;;9.80;55.20;10.00;97461.00;;;;5093363;28;20268;-84
2022/03/15 00:54:05;;;;;;;4.53;4.07;;;9.80;55.20;10.00;97455.00;;;;5092971;28;20246;-85
2022/03/15 00:56:32;;;;;;;4.73;4.10;;;9.80;55.40;10.00;97459.00;;;;5093588;28;20537;-85
2022/03/15 00:58:59;;;;;;;5.90;4.17;;;9.80;55.80;10.00;97460.00;;;;5072439;28;20230;-85
2022/03/15 01:01:26;;;;;;;5.03;4.27;;;9.80;55.40;10.00;97465.00;;;;5072742;28;20760;-85
2022/03/15 01:03:53;;;;;;;4.50;4.10;;;9.80;55.40;10.00;97456.00;;;;5072729;28;20294;-85
2022/03/15 01:06:23;;;;;;;4.50;4.10;;;9.80;55.50;10.00;97457.00;;;;5072536;28;20196;-84
2022/03/15 01:08:50;;;;;;;5.33;4.83;;;9.80;55.60;10.00;97450.00;;;;5073111;28;20291;-85
2022/03/15 01:11:17;;;;;;;5.20;4.70;;;9.80;55.60;10.00;97448.00;;;;5072719;28;20200;-84
2022/03/15 01:13:47;;;;;;;5.83;5.23;;;9.80;55.70;10.10;97438.00;;;;5072579;28;20252;-85
2022/03/15 01:16:14;;;;;;;6.10;5.40;;;9.80;55.80;10.00;97452.00;;;;5072284;28;20249;-85
2022/03/15 01:18:43;;;;;;;7.17;5.13;;;9.80;55.60;10.10;97458.00;;;;5071901;28;20231;-85
2022/03/15 01:21:14;;;;;;;5.50;5.00;;;9.80;55.80;10.00;97450.00;;;;5072609;28;20222;-85
2022/03/15 01:23:43;;;;;;;5.50;5.00;;;9.80;55.90;10.10;97458.00;;;;5072205;28;20258;-84
2022/03/15 01:26:10;;;;;;;6.13;5.53;;;9.80;55.90;10.10;97468.00;;;;5072557;28;20223;-85
2022/03/15 01:28:37;;;;;;;6.73;5.10;;;9.80;56.50;10.10;97459.00;;;;5089918;28;20677;-85
2022/03/15 01:31:05;;;;;;;5.90;5.30;;;9.80;56.00;10.10;97457.00;;;;5093191;28;20199;-85
2022/03/15 01:33:32;;;;;;;6.37;5.13;;;9.90;56.10;10.20;97456.00;;;;5093453;28;20766;-84
2022/03/15 01:35:59;;;;;;;6.27;5.17;;;9.90;56.10;10.20;97452.00;;;;5093158;28;20264;-85
2022/03/15 01:38:34;;;;;;;5.87;5.13;;;9.90;56.00;10.20;97443.00;;;;5092420;28;20210;-85
2022/03/15 01:41:05;;;;;;;5.50;4.73;;;9.90;56.00;10.20;97437.00;;;;5092828;28;20195;-85
2022/03/15 01:43:33;;;;;;;5.97;4.77;;;10.00;56.00;10.20;97439.00;;;;5092598;28;20230;-84
2022/03/15 01:46:01;;;;;;;5.33;4.83;;;10.00;55.90;10.20;97431.00;;;;5092969;28;20215;-84
2022/03/15 01:48:29;;;;;;;6.90;5.60;;;10.00;55.90;10.20;97430.00;;;;5093468;28;20663;-85
2022/03/15 01:50:57;;;;;;;6.50;5.07;;;9.90;56.00;10.20;97428.00;;;;5092790;28;20203;-84
2022/03/15 01:53:24;;;;;;;7.60;5.13;;;10.00;56.00;10.20;97428.00;;;;5092962;28;20302;-84
2022/03/15 01:55:58;;;;;;;5.40;4.90;;;10.00;56.00;10.20;97431.00;;;;5092527;28;20710;-84
2022/03/15 01:58:29;;;;;;;6.20;5.60;;;10.00;56.30;10.30;97418.00;;;;5092876;28;20217;-85
2022/03/15 02:00:56;;;;;;;5.33;4.67;;;10.00;56.20;10.20;97412.00;;;;5093646;28;20248;-84
2022/03/15 02:03:23;;;;;;;5.50;5.00;;;10.00;56.10;10.20;97402.00;;;;5092654;28;20310;-84
2022/03/15 02:05:50;;;;;;;5.77;4.80;;;10.00;56.10;10.20;97403.00;;;;5093028;28;20225;-84
2022/03/15 02:08:18;;;;;;;6.27;5.67;;;10.00;56.20;10.20;97403.00;;;;5092377;28;20675;-84
2022/03/15 02:10:46;;;;;;;5.80;5.23;;;9.90;56.70;10.20;97398.00;;;;5094640;28;20245;-85
2022/03/15 02:13:13;;;;;;;5.87;5.03;;;10.00;56.30;10.20;97384.00;;;;5096987;28;20608;-85
2022/03/15 02:15:41;;;;;;;6.13;5.53;;;10.00;56.30;10.20;97387.00;;;;5096659;28;20261;-85
2022/03/15 02:18:09;;;;;;;6.43;5.10;;;10.00;56.40;10.20;97389.00;;;;5096734;28;20230;-85
2022/03/15 02:20:38;;;;;;;7.57;5.70;;;9.90;56.30;10.20;97392.00;;;;5097821;28;20230;-84
2022/03/15 02:23:06;;;;;;;5.47;4.97;;;10.00;56.50;10.20;97396.00;;;;5096582;28;20268;-85
2022/03/15 02:25:35;;;;;;;6.20;5.03;;;10.00;56.50;10.30;97396.00;;;;5097483;28;20226;-84
2022/03/15 02:28:02;;;;;;;6.40;5.77;;;10.00;56.50;10.30;97407.00;;;;5096207;28;20199;-85
2022/03/15 02:30:30;;;;;;;7.33;5.50;;;10.00;56.40;10.30;97406.00;;;;5095722;28;20591;-84
2022/03/15 02:32:58;;;;;;;6.73;5.93;;;9.90;56.40;10.30;97405.00;;;;5095800;28;20668;-85
2022/03/15 02:35:28;;;;;;;6.13;5.53;;;10.00;56.50;10.30;97399.00;;;;5095519;28;20678;-84
2022/03/15 02:38:01;;;;;;;6.00;5.30;;;10.00;56.60;10.30;97396.00;;;;5095316;28;20196;-85
2022/03/15 02:40:28;;;;;;;5.97;5.37;;;10.00;56.70;10.30;97389.00;;;;5096577;28;20620;-85
2022/03/15 02:42:56;;;;;;;6.00;4.93;;;10.00;56.50;10.30;97390.00;;;;5095558;28;20714;-85
2022/03/15 02:45:23;;;;;;;7.63;5.50;;;10.00;56.70;10.30;97381.00;;;;5095550;28;20833;-86
2022/03/15 02:47:50;;;;;;;6.37;5.77;;;10.00;56.60;10.30;97391.00;;;;5095828;28;20203;-85
2022/03/15 02:50:19;;;;;;;5.53;5.03;;;10.00;56.60;10.30;97385.00;;;;5096168;28;20278;-85
2022/03/15 02:52:46;;;;;;;6.13;5.60;;;10.00;56.70;10.30;97397.00;;;;5095402;28;20272;-85
2022/03/15 02:55:16;;;;;;;6.00;5.40;;;10.10;56.80;10.30;97384.00;;;;5095653;28;20664;-84
2022/03/15 02:57:44;;;;;;;6.47;5.77;;;10.00;56.80;10.20;97386.00;;;;5095686;28;20673;-85
2022/03/15 03:00:17;;;;;;;6.00;5.40;;;10.00;56.60;10.20;97392.00;;;;5095654;28;20588;-86
2022/03/15 03:02:44;;;;;;;6.67;5.60;;;10.00;56.70;10.20;97365.00;;;;5095290;28;20231;-85
2022/03/15 03:05:12;;;;;;;6.10;5.50;;;10.00;56.70;10.20;97365.00;;;;5095791;28;20269;-85
2022/03/15 03:07:43;;;;;;;6.90;6.17;;;10.00;56.70;10.20;97358.00;;;;5095804;28;20227;-85
2022/03/15 03:10:12;;;;;;;6.47;5.43;;;10.00;56.70;10.20;97352.00;;;;5095265;28;20214;-85
2022/03/15 03:12:41;;;;;;;7.07;5.73;;;10.00;56.70;10.20;97366.00;;;;5094995;28;20276;-85
2022/03/15 03:15:20;;;;;;;6.07;5.47;;;9.90;56.60;10.10;97368.00;;;;5094725;28;20305;-85
2022/03/15 03:17:47;;;;;;;6.90;6.20;;;9.90;56.70;10.10;97357.00;;;;5094950;28;20536;-86
2022/03/15 03:20:19;;;;;;;7.57;6.47;;;9.90;57.00;10.10;97361.00;;;;5095164;28;20191;-85
2022/03/15 03:22:50;;;;;;;6.53;5.80;;;9.90;56.90;10.10;97363.00;;;;5094186;28;20752;-85
2022/03/15 03:25:18;;;;;;;6.20;5.60;;;9.90;56.90;10.10;97364.00;;;;5094337;28;20722;-85
2022/03/15 03:27:50;;;;;;;7.40;6.70;;;9.80;56.90;10.10;97358.00;;;;5094494;28;20205;-85
2022/03/15 03:30:17;;;;;;;6.90;6.13;;;9.80;57.00;10.10;97358.00;;;;5094777;28;20606;-85
2022/03/15 03:32:46;;;;;;;7.00;6.30;;;9.80;57.00;10.00;97356.00;;;;5094957;28;20207;-84
2022/03/15 03:35:13;;;;;;;6.73;5.87;;;9.80;57.00;10.00;97352.00;;;;5094213;28;20219;-85
2022/03/15 03:37:40;;;;;;;7.63;6.37;;;9.80;57.00;10.00;97352.00;;;;5095249;28;20210;-85
2022/03/15 03:40:09;;;;;;;7.20;6.13;;;9.70;57.10;10.00;97360.00;;;;5094589;28;20199;-85
2022/03/15 03:42:44;;;;;;;7.67;6.27;;;9.70;57.20;10.00;97351.00;;;;5094670;28;20663;-85
2022/03/15 03:45:15;;;;;;;6.40;5.80;;;9.90;57.40;10.00;97352.00;;;;5093992;28;20301;-85
2022/03/15 03:47:43;;;;;;;7.03;5.77;;;9.70;57.30;10.00;97361.00;;;;5094501;28;20206;-85
2022/03/15 03:50:15;;;;;;;6.47;5.87;;;9.70;57.40;10.00;97363.00;;;;5093891;28;20252;-85
2022/03/15 03:52:45;;;;;;;8.57;6.40;;;9.70;57.50;10.00;97374.00;;;;5094038;28;20459;-85
2022/03/15 03:55:12;;;;;;;6.80;6.10;;;9.60;57.50;10.00;97367.00;;;;5093961;28;20314;-85
2022/03/15 03:57:39;;;;;;;7.43;6.30;;;9.70;57.60;10.00;97360.00;;;;5094148;28;20191;-84
2022/03/15 04:00:14;;;;;;;7.83;6.50;;;9.70;57.60;10.00;97364.00;;;;5094377;28;20206;-85
2022/03/15 04:02:41;;;;;;;7.13;6.27;;;9.70;57.70;10.00;97363.00;;;;5094366;28;20279;-85
2022/03/15 04:05:20;;;;;;;6.90;5.80;;;9.70;57.60;9.90;97367.00;;;;5093672;28;20215;-85
2022/03/15 04:07:47;;;;;;;7.40;6.30;;;9.70;57.60;10.00;97364.00;;;;5093917;28;20593;-84
2022/03/15 04:10:15;;;;;;;10.60;6.77;;;9.70;57.60;10.00;97365.00;;;;5094286;28;20209;-85
2022/03/15 04:12:43;;;;;;;7.40;6.67;;;9.70;57.70;9.90;97363.00;;;;5093956;28;20207;-85
2022/03/15 04:15:11;;;;;;;8.10;6.63;;;9.70;57.70;9.90;97361.00;;;;5093340;28;20223;-85
2022/03/15 04:17:40;;;;;;;8.30;6.33;;;9.70;57.70;9.90;97353.00;;;;5093733;28;20272;-84
2022/03/15 04:20:08;;;;;;;9.07;7.07;;;9.70;57.70;9.90;97347.00;;;;5093453;28;20248;-84
2022/03/15 04:22:41;;;;;;;7.50;6.33;;;9.70;57.70;9.90;97350.00;;;;5093590;28;20717;-85
2022/03/15 04:25:09;;;;;;;7.20;6.03;;;9.70;57.80;9.80;97348.00;;;;5093337;28;20235;-84
2022/03/15 04:27:37;;;;;;;8.70;6.67;;;9.70;57.80;9.80;97342.00;;;;5093454;28;20249;-84
2022/03/15 04:30:05;;;;;;;7.53;6.67;;;9.60;57.80;9.80;97348.00;;;;5093707;28;20286;-84
2022/03/15 04:32:32;;;;;;;7.43;6.17;;;9.60;58.50;9.80;97356.00;;;;5092860;28;20206;-85
2022/03/15 04:35:07;;;;;;;8.83;6.63;;;9.60;58.00;9.80;97351.00;;;;5092710;28;20246;-85
2022/03/15 04:37:34;;;;;;;8.23;6.87;;;9.60;58.20;9.80;97351.00;;;;5093220;28;20217;-84
2022/03/15 04:40:07;;;;;;;8.47;7.40;;;9.60;58.10;9.80;97354.00;;;;5093667;28;20226;-86
2022/03/15 04:42:34;;;;;;;9.53;6.93;;;9.60;58.20;9.80;97353.00;;;;5093587;28;20206;-85
2022/03/15 04:45:01;;;;;;;10.37;7.60;;;9.60;58.10;9.80;97353.00;;;;5093528;28;20245;-85
2022/03/15 04:47:28;;;;;;;8.63;7.73;;;9.60;58.00;9.80;97350.00;;;;5093982;28;20259;-84
2022/03/15 04:49:55;;;;;;;8.43;7.57;;;9.60;58.40;9.80;97352.00;;;;5092444;28;20195;-85
2022/03/15 04:52:26;;;;;;;9.37;8.23;;;9.60;58.60;9.80;97350.00;;;;5093245;28;20278;-85
2022/03/15 04:54:53;;;;;;;11.43;8.07;;;9.60;58.70;9.80;97345.00;;;;5092997;28;20253;-86
2022/03/15 04:57:21;;;;;;;9.63;8.07;;;9.60;58.70;9.80;97353.00;;;;5092782;28;20289;-85
2022/03/15 04:59:48;;;;;;;8.60;7.40;;;9.60;58.70;9.90;97347.00;;;;5093367;28;20565;-85
2022/03/15 05:02:18;;;;;;;10.17;8.23;;;9.60;58.80;9.90;97347.00;;;;5093140;28;20217;-85
2022/03/15 05:04:45;;;;;;;9.10;8.17;;;9.60;58.80;9.90;97344.00;;;;5092387;28;20266;-84
2022/03/15 05:07:12;;;;;;;9.30;8.13;;;9.70;58.80;9.90;97351.00;;;;5093500;28;20201;-85
2022/03/15 05:11:06;;;;;;;8.97;8.07;;;9.60;58.90;10.00;97344.00;;;;5093931;28;20215;-85
2022/03/15 05:12:27;;;;;;;9.10;7.47;;;9.70;59.50;10.00;97355.00;;;;5092846;28;20202;-85
2022/03/15 05:14:54;;;;;;;9.70;8.63;;;9.70;58.80;10.00;97344.00;;;;5092211;28;20216;-85
2022/03/15 05:17:23;;;;;;;9.03;7.93;;;9.70;58.80;10.00;97343.00;;;;5093000;28;20668;-85
2022/03/15 05:19:50;;;;;;;11.83;8.33;;;9.80;58.90;10.10;97345.00;;;;5092967;28;20250;-85
2022/03/15 05:22:17;;;;;;;9.63;8.60;;;9.80;58.90;10.10;97345.00;;;;5092556;28;20275;-85
2022/03/15 05:24:49;;;;;;;9.47;8.00;;;9.80;58.90;10.10;97347.00;;;;5092228;28;20633;-85
2022/03/15 05:27:16;;;;;;;10.90;8.53;;;9.70;58.90;10.10;97337.00;;;;5086837;28;20206;-85
2022/03/15 05:29:43;;;;;;;10.77;8.17;;;9.80;58.80;10.10;97337.00;;;;5071917;28;20200;-85
2022/03/15 05:32:10;;;;;;;10.87;8.60;;;9.80;58.80;10.10;97333.00;;;;5072274;28;20225;-85
2022/03/15 05:34:40;;;;;;;10.30;8.67;;;9.90;58.70;10.20;97331.00;;;;5072164;28;20752;-85
2022/03/15 05:37:08;;;;;;;9.17;8.23;;;9.90;58.90;10.20;97338.00;;;;5102880;22;20241;-84
2022/03/15 05:39:35;;;;;;;9.33;8.10;;;9.90;58.70;10.20;97339.00;;;;5089754;28;20225;-85
2022/03/15 05:42:05;;;;;;;10.70;8.87;;;9.90;58.70;10.20;97333.00;;;;5092050;28;20260;-84
2022/03/15 05:44:32;;;;;;;11.10;8.83;;;10.00;58.80;10.30;97331.00;;;;5096036;28;20747;-85
2022/03/15 05:46:59;;;;;;;12.27;9.00;;;10.00;58.90;10.30;97343.00;;;;5098690;28;20199;-85
2022/03/15 05:49:26;;;;;;;9.77;8.67;;;10.00;58.90;10.30;97337.00;;;;5098227;28;20573;-85
2022/03/15 05:51:54;;;;;;;11.57;9.03;;;10.00;58.80;10.40;97329.00;;;;5098315;28;20281;-84
2022/03/15 05:54:24;;;;;;;10.63;8.87;;;10.10;58.80;10.40;97332.00;;;;5098102;28;20250;-85
2022/03/15 05:56:51;;;;;;;10.63;9.00;;;10.10;58.90;10.40;97341.00;;;;5095531;28;20234;-85
2022/03/15 05:59:20;;;;;;;9.87;8.77;;;10.10;58.80;10.50;97348.00;;;;5078270;28;20547;-84
2022/03/15 06:01:47;;;;;;;9.77;8.27;;;10.10;58.90;10.50;97346.00;;;;5077814;28;20257;-84
2022/03/15 06:04:14;;;;;;;9.77;8.53;;;10.20;58.80;10.50;97348.00;;;;5077917;28;20841;-84
2022/03/15 06:06:41;;;;;;;10.77;8.83;;;10.20;58.80;10.60;97352.00;;;;5077878;28;20261;-85
2022/03/15 06:09:11;;;;;;;11.03;9.03;;;10.50;58.90;10.60;97337.00;;;;5078200;28;20288;-83
2022/03/15 06:11:39;;;;;;;9.60;8.60;;;10.20;58.80;10.60;97348.00;;;;5078342;28;20215;-84
2022/03/15 06:14:08;;;;;;;10.50;9.03;;;10.20;58.80;10.60;97341.00;;;;5078258;28;20687;-85
2022/03/15 06:16:39;;;;;;;10.70;8.43;;;10.30;58.90;10.70;97348.00;;;;5078078;28;20302;-85
2022/03/15 06:19:06;;;;;;;11.33;8.93;;;10.60;59.10;10.70;97355.00;;;;5077970;28;20200;-85
2022/03/15 06:21:33;;;;;;;11.17;8.47;;;10.30;59.00;10.70;97351.00;;;;5078383;28;20187;-85
2022/03/15 06:24:03;;;;;;;10.77;8.70;;;10.30;59.00;10.80;97362.00;;;;5077921;28;20307;-85
2022/03/15 06:26:31;;;;;;;11.50;8.50;;;10.40;59.10;10.80;97353.00;;;;5077709;28;20273;-84
2022/03/15 06:29:01;;;;;;;10.70;8.17;;;10.50;59.00;10.80;97366.00;;;;5077752;28;20280;-85
2022/03/15 06:31:30;;;;;;;10.70;8.80;;;10.40;58.90;10.90;97361.00;;;;5077497;28;20211;-85
2022/03/15 06:33:58;;;;;;;11.33;9.70;;;10.40;58.90;10.90;97365.00;;;;5077474;28;20585;-84
2022/03/15 06:36:25;;;;;;;9.87;8.53;;;10.50;59.10;11.00;97346.00;;;;5077424;28;20398;-85
2022/03/15 06:38:54;;;;;;;9.87;8.87;;;10.50;59.00;11.00;97349.00;;;;5077818;28;20246;-85
2022/03/15 06:41:21;;;;;;;11.53;8.93;;;10.60;58.80;11.10;97359.00;;;;5077550;28;20269;-85
2022/03/15 06:43:48;;;;;;;11.50;9.17;;;10.60;58.80;11.10;97363.00;;;;5077320;28;20302;-85
2022/03/15 06:46:16;;;;;;;9.83;8.87;;;10.70;58.80;11.20;97359.00;;;;5077484;28;20644;-85
2022/03/15 06:48:43;;;;;;;10.83;8.63;;;10.70;58.80;11.20;97359.00;;;;5077686;28;20250;-86
2022/03/15 06:51:12;;;;;;;9.63;8.63;;;10.70;58.70;11.30;97364.00;;;;5078264;28;20670;-85
2022/03/15 06:53:40;;;;;;;11.00;9.20;;;10.80;58.80;11.30;97364.00;;;;5077755;28;20223;-85
2022/03/15 06:56:09;;;;;;;10.47;8.90;;;10.80;58.60;11.30;97372.00;;;;5075438;28;20207;-85
2022/03/15 06:58:36;;;;;;;10.03;8.90;;;10.80;58.60;11.40;97375.00;;;;5074969;28;20203;-85
2022/03/15 07:01:05;;;;;;;10.63;9.07;;;10.90;58.50;11.50;97375.00;;;;5074349;28;20212;-85
2022/03/15 07:03:33;;;;;;;10.50;8.97;;;10.90;58.50;11.50;97363.00;;;;5074438;28;20310;-85
2022/03/15 07:06:00;;;;;;;11.07;9.50;;;11.10;58.50;11.60;97364.00;;;;5074307;28;20249;-85
2022/03/15 07:08:29;;;;;;;9.63;8.63;;;11.10;58.50;11.70;97367.00;;;;5074756;28;20224;-84
2022/03/15 07:10:57;;;;;;;12.43;9.43;;;11.30;58.50;11.80;97371.00;;;;5074185;28;20290;-85
2022/03/15 07:13:24;;;;;;;10.90;9.17;;;11.20;58.40;11.90;97357.00;;;;5074673;28;20222;-84
2022/03/15 07:15:51;;;;;;;11.60;9.77;;;11.30;58.40;11.90;97382.00;;;;5074558;28;20241;-85
2022/03/15 07:18:20;;;;;;;10.63;9.03;;;11.40;58.40;12.00;97366.00;;;;5074791;28;20660;-85
2022/03/15 07:20:47;;;;;;;11.37;9.20;;;11.50;58.40;12.20;97354.00;;;;5074963;28;20200;-85
2022/03/15 07:23:14;;;;;;;10.70;8.80;;;11.60;58.40;12.20;97345.00;;;;5074250;28;20283;-85
2022/03/15 07:25:43;;;;;;;11.23;9.23;;;11.60;58.30;12.40;97347.00;;;;5073417;28;20199;-86
2022/03/15 07:28:10;;;;;;;10.93;9.07;;;11.70;58.40;12.50;97355.00;;;;5060146;28;20200;-83
2022/03/15 07:30:37;;;;;;;11.33;10.03;;;11.80;58.30;12.60;97370.00;;;;5053795;28;20571;-85
2022/03/15 07:33:04;;;;;;;10.90;9.60;;;11.90;58.10;12.70;97367.00;;;;5053562;28;20279;-84
2022/03/15 07:35:31;;;;;;;10.73;8.93;;;12.50;58.10;12.80;97366.00;;;;5053412;28;20287;-85
2022/03/15 07:38:00;;;;;;;11.07;9.70;;;12.00;57.80;12.80;97380.00;;;;5053505;28;20228;-85
2022/03/15 07:40:28;;;;;;;10.80;9.47;;;12.20;57.60;12.90;97366.00;;;;5053551;28;20201;-85
2022/03/15 07:42:57;;;;;;;12.17;9.70;;;12.20;57.60;12.90;97361.00;;;;5054439;28;20543;-85
2022/03/15 07:45:25;;;;;;;10.67;8.77;;;12.30;57.30;12.90;97367.00;;;;5053077;28;20288;-85
2022/03/15 07:47:52;;;;;;;10.47;9.00;;;12.40;57.10;13.00;97357.00;;;;5054038;28;20680;-85
2022/03/15 07:50:19;;;;;;;11.20;9.93;;;12.40;57.10;13.00;97363.00;;;;5054303;28;20199;-84
2022/03/15 07:52:47;;;;;;;11.50;9.27;;;12.40;57.10;13.00;97357.00;;;;5054150;28;20240;-85
2022/03/15 07:55:15;;;;;;;9.93;8.93;;;12.40;57.10;13.10;97354.00;;;;5053720;28;20264;-85
2022/03/15 07:57:42;;;;;;;10.43;8.87;;;12.50;57.00;13.10;97343.00;;;;5063160;28;20227;-85
2022/03/15 08:00:12;;;;;;;12.53;9.33;;;12.50;56.90;13.10;97348.00;;;;5073186;28;20227;-85
2022/03/15 08:02:39;;;;;;;10.77;9.33;;;12.60;56.90;13.20;97361.00;;;;5073271;28;20195;-86
2022/03/15 08:05:08;;;;;;;11.00;8.93;;;12.60;56.80;13.20;97362.00;;;;5072730;28;20219;-85
2022/03/15 08:07:36;;;;;;;11.17;9.37;;;12.60;56.80;13.20;97373.00;;;;5071952;28;20211;-85
2022/03/15 08:10:05;;;;;;;11.00;9.60;;;12.70;56.60;13.30;97401.00;;;;5073280;28;20366;-85
2022/03/15 08:12:32;;;;;;;10.83;8.53;;;12.70;56.40;13.30;97393.00;;;;5074158;28;20702;-86
2022/03/15 08:14:59;;;;;;;11.40;9.47;;;12.70;56.30;13.30;97385.00;;;;5073536;28;20312;-85
2022/03/15 08:17:28;;;;;;;10.27;8.80;;;12.80;56.40;13.30;97386.00;;;;5073143;28;20200;-85
2022/03/15 08:19:57;;;;;;;11.80;8.57;;;12.70;56.30;13.30;97388.00;;;;5073126;28;20302;-85
2022/03/15 08:22:25;;;;;;;12.03;8.70;;;12.70;56.20;13.30;97380.00;;;;5073202;28;20204;-86
2022/03/15 08:24:55;;;;;;;10.10;8.90;;;12.70;56.10;13.30;97381.00;;;;5072770;28;20230;-85
2022/03/15 08:27:22;;;;;;;13.73;9.30;;;12.70;56.10;13.30;97384.00;;;;5065839;28;20208;-85
2022/03/15 08:29:49;;;;;;;13.07;8.93;;;12.70;56.00;13.30;97387.00;;;;5052956;28;20231;-85
2022/03/15 08:32:16;;;;;;;9.93;8.93;;;12.70;56.00;13.30;97382.00;;;;5052802;28;20228;-85
2022/03/15 08:34:45;;;;;;;9.13;8.13;;;12.70;56.00;13.40;97383.00;;;;5053063;28;20217;-84
2022/03/15 08:37:12;;;;;;;8.80;7.90;;;12.80;56.00;13.40;97366.00;;;;5052714;28;20293;-85
2022/03/15 08:39:41;;;;;;;8.87;7.97;;;12.80;56.00;13.50;97366.00;;;;5052667;28;20292;-85
2022/03/15 08:42:09;;;;;;;9.70;8.17;;;12.80;56.00;13.50;97356.00;;;;5052665;28;20197;-84
2022/03/15 08:44:37;;;;;;;12.10;7.27;;;12.90;56.10;13.60;97357.00;;;;5051948;28;20256;-85
2022/03/15 08:47:04;;;;;;;8.60;7.80;;;12.90;56.00;13.70;97356.00;;;;5052191;28;20308;-86
2022/03/15 08:49:32;;;;;;;8.60;7.50;;;13.00;55.80;13.70;97360.00;;;;5052222;28;20205;-85
2022/03/15 08:52:00;;;;;;;8.97;8.03;;;13.10;55.80;13.80;97363.00;;;;5051976;28;20602;-85
2022/03/15 08:54:28;;;;;;;9.63;8.30;;;13.10;55.70;13.90;97369.00;;;;5052121;28;20225;-85
2022/03/15 08:56:55;;;;;;;8.63;7.73;;;13.20;55.70;14.00;97381.00;;;;5055491;28;20253;-85
2022/03/15 08:59:25;;;;;;;8.30;7.43;;;13.30;55.60;14.10;97386.00;;;;5072434;28;20277;-84
2022/03/15 09:01:52;;;;;;;8.17;7.37;;;13.30;55.50;14.20;97377.00;;;;5072434;28;20206;-85
2022/03/15 09:04:20;;;;;;;8.90;8.03;;;13.40;55.40;14.30;97375.00;;;;5072093;28;20335;-85
2022/03/15 09:06:48;;;;;;;11.30;7.90;;;13.50;55.40;14.40;97365.00;;;;5072523;28;20283;-85
2022/03/15 09:09:18;;;;;;;10.17;7.70;;;13.60;55.50;14.50;97348.00;;;;5072100;28;20202;-85
2022/03/15 09:11:47;;;;;;;9.27;7.33;;;13.80;55.40;14.70;97354.00;;;;5072206;28;20632;-86
2022/03/15 09:14:14;;;;;;;9.97;8.33;;;13.90;55.50;14.80;97358.00;;;;5072035;28;20654;-86
2022/03/15 09:16:42;;;;;;;7.40;6.70;;;14.10;55.60;15.00;97347.00;;;;5072129;28;20563;-86
2022/03/15 09:19:11;;;;;;;7.93;7.10;;;14.20;55.40;15.20;97334.00;;;;5071806;28;20251;-85
2022/03/15 09:21:38;;;;;;;8.60;7.73;;;14.40;55.20;15.30;97338.00;;;;5072147;28;20257;-86
2022/03/15 09:24:06;;;;;;;8.10;7.23;;;14.60;54.80;15.50;97338.00;;;;5071657;28;20240;-85
2022/03/15 09:26:42;;;;;;;7.53;6.87;;;14.80;54.50;15.60;97347.00;;;;5071972;28;20192;-86
2022/03/15 09:29:09;;;;;;;8.03;7.23;;;14.90;54.30;15.80;97342.00;;;;5072307;28;20499;-86
2022/03/15 09:31:37;;;;;;;14.30;7.20;;;15.10;54.20;16.00;97337.00;;;;5071831;28;20210;-86
2022/03/15 09:34:04;;;;;;;8.40;7.13;;;15.30;54.00;16.00;97330.00;;;;5072091;28;20691;-86
2022/03/15 09:36:31;;;;;;;7.30;6.60;;;15.50;53.60;16.10;97324.00;;;;5072131;28;20282;-86
2022/03/15 09:38:59;;;;;;;7.13;6.27;;;15.60;53.10;16.20;97322.00;;;;5072603;28;20200;-86
2022/03/15 09:41:28;;;;;;;6.87;6.27;;;15.70;52.70;16.30;97327.00;;;;5071800;28;20288;-86
2022/03/15 09:43:58;;;;;;;6.30;5.63;;;15.80;52.20;16.40;97347.00;;;;5071678;28;20775;-86
2022/03/15 09:46:28;;;;;;;6.43;5.80;;;15.90;52.30;16.50;97341.00;;;;5071547;28;20206;-86
2022/03/15 09:48:56;;;;;;;7.33;6.27;;;16.00;52.30;16.60;97338.00;;;;5071794;28;20235;-86
2022/03/15 09:51:26;;;;;;;6.77;6.17;;;16.10;52.40;16.70;97321.00;;;;5072005;28;20219;-86
2022/03/15 09:53:57;;;;;;;6.30;5.70;;;16.10;52.20;16.90;97322.00;;;;5071718;28;20238;-86
2022/03/15 09:56:24;;;;;;;7.90;6.60;;;16.30;52.10;17.00;97324.00;;;;5071590;28;20242;-87
2022/03/15 09:58:52;;;;;;;7.07;6.37;;;16.40;51.80;17.10;97317.00;;;;5052326;28;20606;-86
2022/03/15 10:01:20;;;;;;;7.23;6.50;;;16.40;51.70;17.20;97308.00;;;;5051575;28;20193;-86
2022/03/15 10:03:48;;;;;;;8.03;6.47;;;16.50;51.40;17.30;97296.00;;;;5051078;28;20274;-87
2022/03/15 10:06:15;;;;;;;7.03;6.30;;;16.60;51.20;17.30;97285.00;;;;5051257;28;20299;-85
2022/03/15 10:08:43;;;;;;;7.27;6.40;;;16.70;51.00;17.40;97283.00;;;;5051212;28;20399;-87
2022/03/15 10:11:12;;;;;;;6.97;6.27;;;16.70;51.00;17.50;97271.00;;;;5051477;28;20251;-85
2022/03/15 10:13:41;;;;;;;8.73;6.60;;;16.80;51.00;17.50;97266.00;;;;5050939;28;20220;-87
2022/03/15 10:16:13;;;;;;;7.80;6.23;;;16.80;50.80;17.60;97267.00;;;;5050996;28;20235;-86
2022/03/15 10:18:53;;;;;;;8.30;6.37;;;16.90;50.60;17.70;97264.00;;;;5051445;28;20228;-86
2022/03/15 10:21:24;;;;;;;8.20;6.13;;;17.00;50.20;17.70;97276.00;;;;5051848;28;20212;-87
2022/03/15 10:23:54;;;;;;;6.83;6.13;;;17.00;50.30;17.80;97286.00;;;;5051324;28;20220;-86
2022/03/15 10:26:25;;;;;;;6.50;5.90;;;17.10;50.40;17.80;97290.00;;;;5050930;28;20685;-86
2022/03/15 10:28:54;;;;;;;6.03;5.43;;;17.10;50.40;17.90;97293.00;;;;5071293;28;20255;-86
2022/03/15 10:31:24;;;;;;;6.37;5.10;;;17.20;50.50;18.00;97297.00;;;;5073544;28;20196;-86
2022/03/15 10:33:54;;;;;;;6.03;5.53;;;17.20;50.40;18.10;97298.00;;;;5075461;28;20243;-84
2022/03/15 10:36:22;;;;;;;6.43;5.23;;;17.30;50.70;18.20;97300.00;;;;5074938;28;20231;-86
2022/03/15 10:38:52;;;;;;;6.07;4.87;;;17.40;50.60;18.30;97315.00;;;;5075046;28;20206;-86
2022/03/15 10:41:20;;;;;;;5.47;4.97;;;17.50;50.40;18.40;97312.00;;;;5075016;28;20204;-86
2022/03/15 10:43:54;;;;;;;5.87;5.37;;;17.60;50.20;18.50;97315.00;;;;5074506;28;20306;-86
2022/03/15 10:46:25;;;;;;;6.23;5.57;;;17.70;49.80;18.60;97318.00;;;;5074499;28;20211;-86
2022/03/15 10:49:01;;;;;;;6.97;6.00;;;17.70;49.80;18.70;97311.00;;;;5074744;28;20267;-87
2022/03/15 10:51:29;;;;;;;6.33;5.77;;;17.80;49.60;18.80;97300.00;;;;5074492;28;20192;-86
2022/03/15 10:54:03;;;;;;;6.40;5.80;;;17.90;49.50;18.80;97294.00;;;;5074506;28;20250;-86
2022/03/15 10:56:32;;;;;;;5.90;5.30;;;18.00;49.10;18.90;97298.00;;;;5074745;28;20199;-86
2022/03/15 10:59:01;;;;;;;5.73;5.23;;;18.10;49.00;18.90;97295.00;;;;5054656;28;20246;-87
2022/03/15 11:01:36;;;;;;;6.70;5.07;;;18.00;48.90;18.90;97290.00;;;;5054562;28;20224;-87